sensor_id;sensor_type;location;lat;lon;timestamp;P1;durP1;ratioP1;P2;durP2;ratioP2
7997;SDS011;4044;49.814;7.828;2023-05-23T00:00:09;41.90;;;35.55;;
7997;SDS011;4044;49.814;7.828;2023-05-23T00:02:35;44.45;;;38.97;;
7997;SDS011;4044;49.814;7.828;2023-05-23T00:05:01;49.38;;;40.05;;
7997;SDS011;4044;49.814;7.828;2023-05-23T00:07:27;42.83;;;36.90;;
7997;SDS011;4044;49.814;7.828;2023-05-23T00:09:53;44.58;;;38.35;;
7997;SDS011;4044;49.814;7.828;2023-05-23T00:12:18;44.38;;;38.25;;
7997;SDS011;4044;49.814;7.828;2023-05-23T00:14:44;48.72;;;39.15;;
7997;SDS011;4044;49.814;7.828;2023-05-23T00:17:09;44.88;;;38.78;;
7997;SDS011;4044;49.814;7.828;2023-05-23T00:19:36;47.97;;;38.40;;
7997;SDS011;4044;49.814;7.828;2023-05-23T00:22:01;47.58;;;37.63;;
7997;SDS011;4044;49.814;7.828;2023-05-23T00:24:27;45.83;;;36.83;;
7997;SDS011;4044;49.814;7.828;2023-05-23T00:26:53;43.45;;;37.58;;
7997;SDS011;4044;49.814;7.828;2023-05-23T00:29:18;45.88;;;39.35;;
7997;SDS011;4044;49.814;7.828;2023-05-23T00:31:44;43.55;;;38.10;;
7997;SDS011;4044;49.814;7.828;2023-05-23T00:34:19;47.60;;;38.33;;
7997;SDS011;4044;49.814;7.828;2023-05-23T00:36:45;44.85;;;40.03;;
7997;SDS011;4044;49.814;7.828;2023-05-23T00:39:11;43.53;;;37.67;;
7997;SDS011;4044;49.814;7.828;2023-05-23T00:41:52;45.53;;;37.97;;
7997;SDS011;4044;49.814;7.828;2023-05-23T00:44:18;45.58;;;38.25;;
7997;SDS011;4044;49.814;7.828;2023-05-23T00:46:45;41.22;;;36.72;;
7997;SDS011;4044;49.814;7.828;2023-05-23T00:49:13;43.08;;;38.45;;
7997;SDS011;4044;49.814;7.828;2023-05-23T00:51:39;40.20;;;35.97;;
7997;SDS011;4044;49.814;7.828;2023-05-23T00:54:06;40.78;;;36.55;;
7997;SDS011;4044;49.814;7.828;2023-05-23T00:56:33;40.35;;;35.85;;
7997;SDS011;4044;49.814;7.828;2023-05-23T00:58:59;41.53;;;37.13;;
7997;SDS011;4044;49.814;7.828;2023-05-23T01:01:25;40.13;;;35.85;;
7997;SDS011;4044;49.814;7.828;2023-05-23T01:03:51;38.70;;;34.75;;
7997;SDS011;4044;49.814;7.828;2023-05-23T01:06:17;39.55;;;35.03;;
7997;SDS011;4044;49.814;7.828;2023-05-23T01:08:42;40.08;;;36.00;;
7997;SDS011;4044;49.814;7.828;2023-05-23T01:11:26;40.38;;;36.25;;
7997;SDS011;4044;49.814;7.828;2023-05-23T01:14:11;38.85;;;34.90;;
7997;SDS011;4044;49.814;7.828;2023-05-23T01:16:49;41.28;;;37.00;;
7997;SDS011;4044;49.814;7.828;2023-05-23T01:22:00;37.03;;;33.00;;
7997;SDS011;4044;49.814;7.828;2023-05-23T01:24:35;37.70;;;33.60;;
7997;SDS011;4044;49.814;7.828;2023-05-23T01:30:25;38.40;;;34.20;;
7997;SDS011;4044;49.814;7.828;2023-05-23T01:32:54;37.67;;;33.63;;
7997;SDS011;4044;49.814;7.828;2023-05-23T01:35:23;41.72;;;36.33;;
7997;SDS011;4044;49.814;7.828;2023-05-23T01:37:53;46.35;;;38.03;;
7997;SDS011;4044;49.814;7.828;2023-05-23T01:40:19;43.35;;;36.45;;
7997;SDS011;4044;49.814;7.828;2023-05-23T01:42:46;45.70;;;36.65;;
7997;SDS011;4044;49.814;7.828;2023-05-23T01:45:12;42.17;;;37.13;;
7997;SDS011;4044;49.814;7.828;2023-05-23T01:47:39;44.30;;;37.15;;
7997;SDS011;4044;49.814;7.828;2023-05-23T01:50:06;39.22;;;35.10;;
7997;SDS011;4044;49.814;7.828;2023-05-23T01:52:33;38.20;;;34.10;;
7997;SDS011;4044;49.814;7.828;2023-05-23T01:54:59;36.80;;;32.85;;
7997;SDS011;4044;49.814;7.828;2023-05-23T01:57:26;37.08;;;33.33;;
7997;SDS011;4044;49.814;7.828;2023-05-23T01:59:53;36.30;;;32.50;;
7997;SDS011;4044;49.814;7.828;2023-05-23T02:02:19;36.47;;;32.38;;
7997;SDS011;4044;49.814;7.828;2023-05-23T02:04:45;34.40;;;30.98;;
7997;SDS011;4044;49.814;7.828;2023-05-23T02:07:10;35.70;;;32.03;;
7997;SDS011;4044;49.814;7.828;2023-05-23T02:09:36;36.38;;;32.65;;
7997;SDS011;4044;49.814;7.828;2023-05-23T02:12:01;35.40;;;31.85;;
7997;SDS011;4044;49.814;7.828;2023-05-23T02:14:27;34.45;;;30.85;;
7997;SDS011;4044;49.814;7.828;2023-05-23T02:16:53;35.15;;;31.73;;
7997;SDS011;4044;49.814;7.828;2023-05-23T02:19:18;35.25;;;31.58;;
7997;SDS011;4044;49.814;7.828;2023-05-23T02:21:44;35.28;;;31.15;;
7997;SDS011;4044;49.814;7.828;2023-05-23T02:24:09;35.08;;;31.55;;
7997;SDS011;4044;49.814;7.828;2023-05-23T02:26:35;34.85;;;31.33;;
7997;SDS011;4044;49.814;7.828;2023-05-23T02:29:01;36.05;;;32.45;;
7997;SDS011;4044;49.814;7.828;2023-05-23T02:31:26;36.95;;;33.22;;
7997;SDS011;4044;49.814;7.828;2023-05-23T02:33:52;35.58;;;32.08;;
7997;SDS011;4044;49.814;7.828;2023-05-23T02:36:18;36.83;;;33.25;;
7997;SDS011;4044;49.814;7.828;2023-05-23T02:38:43;36.85;;;33.13;;
7997;SDS011;4044;49.814;7.828;2023-05-23T02:41:09;36.05;;;32.25;;
7997;SDS011;4044;49.814;7.828;2023-05-23T02:43:34;37.15;;;33.33;;
7997;SDS011;4044;49.814;7.828;2023-05-23T02:46:00;39.75;;;35.72;;
7997;SDS011;4044;49.814;7.828;2023-05-23T02:48:25;39.47;;;35.38;;
7997;SDS011;4044;49.814;7.828;2023-05-23T02:50:51;36.97;;;33.25;;
7997;SDS011;4044;49.814;7.828;2023-05-23T02:53:16;35.25;;;31.58;;
7997;SDS011;4044;49.814;7.828;2023-05-23T02:55:42;35.75;;;32.08;;
7997;SDS011;4044;49.814;7.828;2023-05-23T02:58:07;38.10;;;32.85;;
7997;SDS011;4044;49.814;7.828;2023-05-23T03:00:33;36.22;;;32.47;;
7997;SDS011;4044;49.814;7.828;2023-05-23T03:03:00;36.15;;;32.55;;
7997;SDS011;4044;49.814;7.828;2023-05-23T03:05:25;33.65;;;30.30;;
7997;SDS011;4044;49.814;7.828;2023-05-23T03:07:51;35.38;;;31.35;;
7997;SDS011;4044;49.814;7.828;2023-05-23T03:10:18;34.08;;;30.42;;
7997;SDS011;4044;49.814;7.828;2023-05-23T03:12:44;33.70;;;30.23;;
7997;SDS011;4044;49.814;7.828;2023-05-23T03:15:11;33.00;;;29.52;;
7997;SDS011;4044;49.814;7.828;2023-05-23T03:17:36;31.60;;;28.38;;
7997;SDS011;4044;49.814;7.828;2023-05-23T03:20:02;31.27;;;28.13;;
7997;SDS011;4044;49.814;7.828;2023-05-23T03:22:28;30.70;;;27.50;;
7997;SDS011;4044;49.814;7.828;2023-05-23T03:24:54;32.03;;;28.67;;
7997;SDS011;4044;49.814;7.828;2023-05-23T03:27:19;30.77;;;27.67;;
7997;SDS011;4044;49.814;7.828;2023-05-23T03:29:45;31.37;;;26.83;;
7997;SDS011;4044;49.814;7.828;2023-05-23T03:32:12;30.10;;;26.93;;
7997;SDS011;4044;49.814;7.828;2023-05-23T03:34:37;33.27;;;29.67;;
7997;SDS011;4044;49.814;7.828;2023-05-23T03:37:03;32.20;;;28.90;;
7997;SDS011;4044;49.814;7.828;2023-05-23T03:39:29;29.93;;;26.77;;
7997;SDS011;4044;49.814;7.828;2023-05-23T03:41:55;27.47;;;24.73;;
7997;SDS011;4044;49.814;7.828;2023-05-23T03:44:20;25.73;;;22.93;;
7997;SDS011;4044;49.814;7.828;2023-05-23T03:46:46;23.00;;;20.63;;
7997;SDS011;4044;49.814;7.828;2023-05-23T03:49:11;21.93;;;19.27;;
7997;SDS011;4044;49.814;7.828;2023-05-23T03:51:37;20.60;;;18.50;;
7997;SDS011;4044;49.814;7.828;2023-05-23T03:54:02;18.53;;;16.77;;
7997;SDS011;4044;49.814;7.828;2023-05-23T03:56:28;18.27;;;16.47;;
7997;SDS011;4044;49.814;7.828;2023-05-23T03:58:53;15.50;;;14.00;;
7997;SDS011;4044;49.814;7.828;2023-05-23T04:01:19;14.63;;;13.23;;
7997;SDS011;4044;49.814;7.828;2023-05-23T04:03:44;13.30;;;11.87;;
7997;SDS011;4044;49.814;7.828;2023-05-23T04:06:10;12.38;;;10.73;;
7997;SDS011;4044;49.814;7.828;2023-05-23T04:08:36;12.73;;;11.40;;
7997;SDS011;4044;49.814;7.828;2023-05-23T04:11:01;12.40;;;11.15;;
7997;SDS011;4044;49.814;7.828;2023-05-23T04:13:27;11.80;;;10.70;;
7997;SDS011;4044;49.814;7.828;2023-05-23T04:15:54;10.10;;;9.20;;
7997;SDS011;4044;49.814;7.828;2023-05-23T04:18:20;9.77;;;8.77;;
7997;SDS011;4044;49.814;7.828;2023-05-23T04:20:46;10.65;;;9.60;;
7997;SDS011;4044;49.814;7.828;2023-05-23T04:23:12;11.10;;;10.02;;
7997;SDS011;4044;49.814;7.828;2023-05-23T04:25:37;10.52;;;9.52;;
7997;SDS011;4044;49.814;7.828;2023-05-23T04:28:03;10.40;;;9.50;;
7997;SDS011;4044;49.814;7.828;2023-05-23T04:30:30;9.07;;;8.18;;
7997;SDS011;4044;49.814;7.828;2023-05-23T04:32:55;10.32;;;9.32;;
7997;SDS011;4044;49.814;7.828;2023-05-23T04:35:24;10.82;;;9.20;;
7997;SDS011;4044;49.814;7.828;2023-05-23T04:37:52;9.40;;;8.43;;
7997;SDS011;4044;49.814;7.828;2023-05-23T04:40:22;9.65;;;8.60;;
7997;SDS011;4044;49.814;7.828;2023-05-23T04:42:48;10.18;;;9.20;;
7997;SDS011;4044;49.814;7.828;2023-05-23T04:45:15;10.27;;;9.25;;
7997;SDS011;4044;49.814;7.828;2023-05-23T04:47:41;10.18;;;8.10;;
7997;SDS011;4044;49.814;7.828;2023-05-23T04:50:08;9.77;;;8.88;;
7997;SDS011;4044;49.814;7.828;2023-05-23T04:52:34;8.68;;;7.88;;
7997;SDS011;4044;49.814;7.828;2023-05-23T04:55:00;10.18;;;9.18;;
7997;SDS011;4044;49.814;7.828;2023-05-23T04:57:26;10.40;;;9.40;;
7997;SDS011;4044;49.814;7.828;2023-05-23T04:59:51;10.65;;;9.55;;
7997;SDS011;4044;49.814;7.828;2023-05-23T05:02:17;11.00;;;10.00;;
7997;SDS011;4044;49.814;7.828;2023-05-23T05:04:43;12.90;;;11.68;;
7997;SDS011;4044;49.814;7.828;2023-05-23T05:07:08;15.43;;;13.82;;
7997;SDS011;4044;49.814;7.828;2023-05-23T05:09:34;14.20;;;12.90;;
7997;SDS011;4044;49.814;7.828;2023-05-23T05:12:00;13.80;;;12.35;;
7997;SDS011;4044;49.814;7.828;2023-05-23T05:14:25;16.48;;;14.77;;
7997;SDS011;4044;49.814;7.828;2023-05-23T05:16:51;18.60;;;16.58;;
7997;SDS011;4044;49.814;7.828;2023-05-23T05:19:18;22.05;;;16.35;;
7997;SDS011;4044;49.814;7.828;2023-05-23T05:21:45;17.92;;;15.45;;
7997;SDS011;4044;49.814;7.828;2023-05-23T05:24:10;17.92;;;15.77;;
7997;SDS011;4044;49.814;7.828;2023-05-23T05:26:36;18.70;;;15.32;;
7997;SDS011;4044;49.814;7.828;2023-05-23T05:29:02;16.92;;;15.15;;
7997;SDS011;4044;49.814;7.828;2023-05-23T05:31:28;16.50;;;14.90;;
7997;SDS011;4044;49.814;7.828;2023-05-23T05:33:53;18.10;;;16.23;;
7997;SDS011;4044;49.814;7.828;2023-05-23T05:36:20;18.17;;;15.25;;
7997;SDS011;4044;49.814;7.828;2023-05-23T05:38:45;17.65;;;15.85;;
7997;SDS011;4044;49.814;7.828;2023-05-23T05:41:11;18.08;;;16.27;;
7997;SDS011;4044;49.814;7.828;2023-05-23T05:43:37;17.38;;;15.77;;
7997;SDS011;4044;49.814;7.828;2023-05-23T05:46:02;12.82;;;11.52;;
7997;SDS011;4044;49.814;7.828;2023-05-23T05:48:28;9.10;;;8.30;;
7997;SDS011;4044;49.814;7.828;2023-05-23T05:50:53;9.82;;;8.93;;
7997;SDS011;4044;49.814;7.828;2023-05-23T05:53:19;8.05;;;7.28;;
7997;SDS011;4044;49.814;7.828;2023-05-23T05:55:44;8.32;;;7.53;;
7997;SDS011;4044;49.814;7.828;2023-05-23T05:58:10;7.68;;;6.97;;
7997;SDS011;4044;49.814;7.828;2023-05-23T06:00:35;7.40;;;6.70;;
7997;SDS011;4044;49.814;7.828;2023-05-23T06:03:06;6.95;;;6.43;;
7997;SDS011;4044;49.814;7.828;2023-05-23T06:05:35;7.03;;;6.20;;
7997;SDS011;4044;49.814;7.828;2023-05-23T06:08:01;9.50;;;8.30;;
7997;SDS011;4044;49.814;7.828;2023-05-23T06:10:27;10.18;;;8.80;;
7997;SDS011;4044;49.814;7.828;2023-05-23T06:12:53;11.25;;;10.32;;
7997;SDS011;4044;49.814;7.828;2023-05-23T06:15:19;11.80;;;10.75;;
7997;SDS011;4044;49.814;7.828;2023-05-23T06:17:45;11.32;;;10.43;;
7997;SDS011;4044;49.814;7.828;2023-05-23T06:20:10;10.88;;;9.98;;
7997;SDS011;4044;49.814;7.828;2023-05-23T06:22:36;10.43;;;9.60;;
7997;SDS011;4044;49.814;7.828;2023-05-23T06:25:02;9.57;;;8.82;;
7997;SDS011;4044;49.814;7.828;2023-05-23T06:27:28;8.88;;;8.15;;
7997;SDS011;4044;49.814;7.828;2023-05-23T06:29:54;9.30;;;8.55;;
7997;SDS011;4044;49.814;7.828;2023-05-23T06:32:19;10.45;;;9.48;;
7997;SDS011;4044;49.814;7.828;2023-05-23T06:34:45;9.70;;;8.90;;
7997;SDS011;4044;49.814;7.828;2023-05-23T06:37:10;9.80;;;8.98;;
7997;SDS011;4044;49.814;7.828;2023-05-23T06:39:37;11.55;;;9.75;;
7997;SDS011;4044;49.814;7.828;2023-05-23T06:42:02;9.55;;;8.75;;
7997;SDS011;4044;49.814;7.828;2023-05-23T06:44:28;8.30;;;7.50;;
7997;SDS011;4044;49.814;7.828;2023-05-23T06:46:54;7.97;;;7.28;;
7997;SDS011;4044;49.814;7.828;2023-05-23T06:49:21;7.57;;;6.93;;
7997;SDS011;4044;49.814;7.828;2023-05-23T06:51:47;7.97;;;7.28;;
7997;SDS011;4044;49.814;7.828;2023-05-23T06:54:13;8.20;;;7.40;;
7997;SDS011;4044;49.814;7.828;2023-05-23T06:56:39;7.85;;;7.25;;
7997;SDS011;4044;49.814;7.828;2023-05-23T06:59:04;7.20;;;6.70;;
7997;SDS011;4044;49.814;7.828;2023-05-23T07:01:30;7.22;;;6.63;;
7997;SDS011;4044;49.814;7.828;2023-05-23T07:03:55;6.95;;;6.35;;
7997;SDS011;4044;49.814;7.828;2023-05-23T07:06:21;6.55;;;6.07;;
7997;SDS011;4044;49.814;7.828;2023-05-23T07:08:46;6.25;;;5.65;;
7997;SDS011;4044;49.814;7.828;2023-05-23T07:11:12;5.38;;;4.97;;
7997;SDS011;4044;49.814;7.828;2023-05-23T07:13:37;5.03;;;4.72;;
7997;SDS011;4044;49.814;7.828;2023-05-23T07:16:03;6.05;;;5.55;;
7997;SDS011;4044;49.814;7.828;2023-05-23T07:18:28;5.75;;;5.25;;
7997;SDS011;4044;49.814;7.828;2023-05-23T07:20:54;5.60;;;5.20;;
7997;SDS011;4044;49.814;7.828;2023-05-23T07:23:21;4.95;;;4.55;;
7997;SDS011;4044;49.814;7.828;2023-05-23T07:25:48;5.65;;;5.20;;
7997;SDS011;4044;49.814;7.828;2023-05-23T07:28:13;5.72;;;5.22;;
7997;SDS011;4044;49.814;7.828;2023-05-23T07:30:40;5.63;;;5.22;;
7997;SDS011;4044;49.814;7.828;2023-05-23T07:33:06;5.18;;;4.68;;
7997;SDS011;4044;49.814;7.828;2023-05-23T07:35:32;4.80;;;4.43;;
7997;SDS011;4044;49.814;7.828;2023-05-23T07:37:57;4.75;;;4.35;;
7997;SDS011;4044;49.814;7.828;2023-05-23T07:40:23;4.53;;;4.22;;
7997;SDS011;4044;49.814;7.828;2023-05-23T07:42:48;4.75;;;4.28;;
7997;SDS011;4044;49.814;7.828;2023-05-23T07:45:14;4.38;;;4.07;;
7997;SDS011;4044;49.814;7.828;2023-05-23T07:47:40;4.03;;;3.63;;
7997;SDS011;4044;49.814;7.828;2023-05-23T07:50:06;3.97;;;3.67;;
7997;SDS011;4044;49.814;7.828;2023-05-23T07:52:32;4.18;;;3.88;;
7997;SDS011;4044;49.814;7.828;2023-05-23T07:54:58;4.80;;;4.30;;
7997;SDS011;4044;49.814;7.828;2023-05-23T07:57:23;4.57;;;4.18;;
7997;SDS011;4044;49.814;7.828;2023-05-23T07:59:51;5.10;;;4.32;;
7997;SDS011;4044;49.814;7.828;2023-05-23T08:02:17;4.10;;;3.80;;
7997;SDS011;4044;49.814;7.828;2023-05-23T08:04:42;4.30;;;4.00;;
7997;SDS011;4044;49.814;7.828;2023-05-23T08:07:09;4.38;;;4.05;;
7997;SDS011;4044;49.814;7.828;2023-05-23T08:09:35;4.15;;;3.72;;
7997;SDS011;4044;49.814;7.828;2023-05-23T08:12:04;4.38;;;4.07;;
7997;SDS011;4044;49.814;7.828;2023-05-23T08:14:30;4.20;;;3.90;;
7997;SDS011;4044;49.814;7.828;2023-05-23T08:16:56;4.28;;;3.97;;
7997;SDS011;4044;49.814;7.828;2023-05-23T08:19:22;5.10;;;4.20;;
7997;SDS011;4044;49.814;7.828;2023-05-23T08:21:47;4.40;;;4.07;;
7997;SDS011;4044;49.814;7.828;2023-05-23T08:24:13;4.35;;;4.05;;
7997;SDS011;4044;49.814;7.828;2023-05-23T08:26:38;4.43;;;4.07;;
7997;SDS011;4044;49.814;7.828;2023-05-23T08:29:04;4.32;;;4.03;;
7997;SDS011;4044;49.814;7.828;2023-05-23T08:31:32;4.43;;;4.13;;
7997;SDS011;4044;49.814;7.828;2023-05-23T08:33:58;4.82;;;4.47;;
7997;SDS011;4044;49.814;7.828;2023-05-23T08:36:24;4.38;;;3.97;;
7997;SDS011;4044;49.814;7.828;2023-05-23T08:38:50;4.53;;;4.07;;
7997;SDS011;4044;49.814;7.828;2023-05-23T08:41:18;4.95;;;4.45;;
7997;SDS011;4044;49.814;7.828;2023-05-23T08:43:48;5.20;;;4.70;;
7997;SDS011;4044;49.814;7.828;2023-05-23T08:46:14;4.50;;;4.20;;
7997;SDS011;4044;49.814;7.828;2023-05-23T08:48:41;4.82;;;4.45;;
7997;SDS011;4044;49.814;7.828;2023-05-23T08:51:08;4.82;;;4.50;;
7997;SDS011;4044;49.814;7.828;2023-05-23T08:53:37;4.25;;;3.95;;
7997;SDS011;4044;49.814;7.828;2023-05-23T08:56:05;4.53;;;4.13;;
7997;SDS011;4044;49.814;7.828;2023-05-23T08:58:31;4.45;;;4.05;;
7997;SDS011;4044;49.814;7.828;2023-05-23T09:00:59;5.30;;;4.82;;
7997;SDS011;4044;49.814;7.828;2023-05-23T09:03:25;5.28;;;4.43;;
7997;SDS011;4044;49.814;7.828;2023-05-23T09:05:54;4.85;;;4.55;;
7997;SDS011;4044;49.814;7.828;2023-05-23T09:08:20;5.22;;;4.72;;
7997;SDS011;4044;49.814;7.828;2023-05-23T09:10:49;5.45;;;5.07;;
7997;SDS011;4044;49.814;7.828;2023-05-23T09:13:15;5.20;;;4.90;;
7997;SDS011;4044;49.814;7.828;2023-05-23T09:18:26;5.15;;;4.85;;
7997;SDS011;4044;49.814;7.828;2023-05-23T09:20:58;5.80;;;5.38;;
7997;SDS011;4044;49.814;7.828;2023-05-23T09:23:25;6.03;;;5.63;;
7997;SDS011;4044;49.814;7.828;2023-05-23T09:25:53;5.45;;;5.00;;
7997;SDS011;4044;49.814;7.828;2023-05-23T09:28:18;5.40;;;5.10;;
7997;SDS011;4044;49.814;7.828;2023-05-23T09:30:44;5.78;;;5.38;;
7997;SDS011;4044;49.814;7.828;2023-05-23T09:33:09;5.60;;;5.20;;
7997;SDS011;4044;49.814;7.828;2023-05-23T09:35:42;6.30;;;5.80;;
7997;SDS011;4044;49.814;7.828;2023-05-23T09:38:09;6.72;;;6.13;;
7997;SDS011;4044;49.814;7.828;2023-05-23T09:40:35;6.60;;;6.00;;
7997;SDS011;4044;49.814;7.828;2023-05-23T09:43:03;6.28;;;5.68;;
7997;SDS011;4044;49.814;7.828;2023-05-23T09:45:31;6.50;;;6.00;;
7997;SDS011;4044;49.814;7.828;2023-05-23T09:47:57;7.38;;;6.70;;
7997;SDS011;4044;49.814;7.828;2023-05-23T09:50:24;8.75;;;8.05;;
7997;SDS011;4044;49.814;7.828;2023-05-23T09:52:54;8.68;;;7.97;;
7997;SDS011;4044;49.814;7.828;2023-05-23T09:55:20;8.80;;;7.88;;
7997;SDS011;4044;49.814;7.828;2023-05-23T09:57:45;8.82;;;8.10;;
7997;SDS011;4044;49.814;7.828;2023-05-23T10:00:16;8.60;;;7.85;;
7997;SDS011;4044;49.814;7.828;2023-05-23T10:08:04;10.50;;;8.00;;
7997;SDS011;4044;49.814;7.828;2023-05-23T10:10:34;8.68;;;7.95;;
7997;SDS011;4044;49.814;7.828;2023-05-23T10:13:25;9.13;;;8.07;;
7997;SDS011;4044;49.814;7.828;2023-05-23T10:15:54;8.50;;;7.65;;
7997;SDS011;4044;49.814;7.828;2023-05-23T10:18:28;7.35;;;6.75;;
7997;SDS011;4044;49.814;7.828;2023-05-23T10:20:54;7.90;;;7.30;;
7997;SDS011;4044;49.814;7.828;2023-05-23T10:23:24;7.32;;;6.68;;
7997;SDS011;4044;49.814;7.828;2023-05-23T10:25:51;8.38;;;7.65;;
7997;SDS011;4044;49.814;7.828;2023-05-23T10:28:16;8.02;;;7.32;;
7997;SDS011;4044;49.814;7.828;2023-05-23T10:30:42;8.50;;;7.70;;
7997;SDS011;4044;49.814;7.828;2023-05-23T10:33:08;8.50;;;7.80;;
7997;SDS011;4044;49.814;7.828;2023-05-23T10:38:31;7.07;;;6.57;;
7997;SDS011;4044;49.814;7.828;2023-05-23T10:43:33;7.10;;;6.40;;
7997;SDS011;4044;49.814;7.828;2023-05-23T10:46:03;7.07;;;6.57;;
7997;SDS011;4044;49.814;7.828;2023-05-23T10:51:06;8.55;;;7.55;;
7997;SDS011;4044;49.814;7.828;2023-05-23T10:53:42;7.53;;;6.95;;
7997;SDS011;4044;49.814;7.828;2023-05-23T10:56:10;8.52;;;7.80;;
7997;SDS011;4044;49.814;7.828;2023-05-23T10:58:46;8.15;;;7.55;;
7997;SDS011;4044;49.814;7.828;2023-05-23T11:01:17;8.73;;;8.02;;
7997;SDS011;4044;49.814;7.828;2023-05-23T11:09:11;10.55;;;9.63;;
7997;SDS011;4044;49.814;7.828;2023-05-23T11:17:48;10.32;;;9.32;;
7997;SDS011;4044;49.814;7.828;2023-05-23T11:19:55;12.85;;;11.65;;
7997;SDS011;4044;49.814;7.828;2023-05-23T11:22:30;14.02;;;11.63;;
7997;SDS011;4044;49.814;7.828;2023-05-23T11:24:57;13.40;;;12.20;;
7997;SDS011;4044;49.814;7.828;2023-05-23T11:27:30;13.70;;;12.52;;
7997;SDS011;4044;49.814;7.828;2023-05-23T11:30:02;12.95;;;11.77;;
7997;SDS011;4044;49.814;7.828;2023-05-23T11:32:31;13.48;;;12.18;;
7997;SDS011;4044;49.814;7.828;2023-05-23T11:34:58;12.80;;;11.68;;
7997;SDS011;4044;49.814;7.828;2023-05-23T11:37:27;12.93;;;11.82;;
7997;SDS011;4044;49.814;7.828;2023-05-23T11:39:54;12.93;;;11.63;;
7997;SDS011;4044;49.814;7.828;2023-05-23T11:42:20;13.18;;;11.88;;
7997;SDS011;4044;49.814;7.828;2023-05-23T11:44:50;12.35;;;11.23;;
7997;SDS011;4044;49.814;7.828;2023-05-23T11:47:16;11.73;;;10.70;;
7997;SDS011;4044;49.814;7.828;2023-05-23T11:49:43;12.65;;;11.55;;
7997;SDS011;4044;49.814;7.828;2023-05-23T11:52:10;12.57;;;11.55;;
7997;SDS011;4044;49.814;7.828;2023-05-23T11:54:36;11.77;;;10.77;;
7997;SDS011;4044;49.814;7.828;2023-05-23T11:57:05;12.45;;;11.35;;
7997;SDS011;4044;49.814;7.828;2023-05-23T11:59:30;12.60;;;11.27;;
7997;SDS011;4044;49.814;7.828;2023-05-23T12:01:56;11.73;;;10.73;;
7997;SDS011;4044;49.814;7.828;2023-05-23T12:04:21;10.95;;;10.05;;
7997;SDS011;4044;49.814;7.828;2023-05-23T12:06:50;13.10;;;10.90;;
7997;SDS011;4044;49.814;7.828;2023-05-23T12:09:16;11.38;;;10.40;;
7997;SDS011;4044;49.814;7.828;2023-05-23T12:11:42;12.07;;;11.18;;
7997;SDS011;4044;49.814;7.828;2023-05-23T12:14:13;11.27;;;10.27;;
7997;SDS011;4044;49.814;7.828;2023-05-23T12:16:41;11.38;;;10.43;;
7997;SDS011;4044;49.814;7.828;2023-05-23T12:19:08;11.20;;;10.30;;
7997;SDS011;4044;49.814;7.828;2023-05-23T12:24:19;10.65;;;9.82;;
7997;SDS011;4044;49.814;7.828;2023-05-23T12:26:49;10.95;;;10.00;;
7997;SDS011;4044;49.814;7.828;2023-05-23T12:29:20;11.18;;;10.13;;
7997;SDS011;4044;49.814;7.828;2023-05-23T12:31:49;10.52;;;9.63;;
7997;SDS011;4044;49.814;7.828;2023-05-23T12:34:15;10.90;;;9.90;;
7997;SDS011;4044;49.814;7.828;2023-05-23T12:36:41;10.90;;;9.80;;
7997;SDS011;4044;49.814;7.828;2023-05-23T12:39:08;11.07;;;10.13;;
7997;SDS011;4044;49.814;7.828;2023-05-23T12:41:34;11.63;;;10.63;;
7997;SDS011;4044;49.814;7.828;2023-05-23T12:44:00;10.43;;;9.63;;
7997;SDS011;4044;49.814;7.828;2023-05-23T12:46:26;11.38;;;10.38;;
7997;SDS011;4044;49.814;7.828;2023-05-23T12:48:52;9.98;;;9.10;;
7997;SDS011;4044;49.814;7.828;2023-05-23T12:51:19;11.32;;;10.40;;
7997;SDS011;4044;49.814;7.828;2023-05-23T12:53:45;10.07;;;9.07;;
7997;SDS011;4044;49.814;7.828;2023-05-23T12:56:10;9.65;;;8.65;;
7997;SDS011;4044;49.814;7.828;2023-05-23T12:58:36;9.82;;;8.82;;
7997;SDS011;4044;49.814;7.828;2023-05-23T13:01:01;10.07;;;9.13;;
7997;SDS011;4044;49.814;7.828;2023-05-23T13:03:27;11.18;;;9.98;;
7997;SDS011;4044;49.814;7.828;2023-05-23T13:05:55;11.85;;;10.55;;
7997;SDS011;4044;49.814;7.828;2023-05-23T13:08:21;11.20;;;10.20;;
7997;SDS011;4044;49.814;7.828;2023-05-23T13:10:47;11.95;;;10.63;;
7997;SDS011;4044;49.814;7.828;2023-05-23T13:13:13;11.10;;;10.07;;
7997;SDS011;4044;49.814;7.828;2023-05-23T13:15:39;11.88;;;10.75;;
7997;SDS011;4044;49.814;7.828;2023-05-23T13:18:04;12.32;;;11.13;;
7997;SDS011;4044;49.814;7.828;2023-05-23T13:20:30;12.57;;;11.07;;
7997;SDS011;4044;49.814;7.828;2023-05-23T13:22:56;12.45;;;11.13;;
7997;SDS011;4044;49.814;7.828;2023-05-23T13:25:22;11.95;;;10.85;;
7997;SDS011;4044;49.814;7.828;2023-05-23T13:27:48;12.00;;;9.40;;
7997;SDS011;4044;49.814;7.828;2023-05-23T13:30:14;10.63;;;9.40;;
7997;SDS011;4044;49.814;7.828;2023-05-23T13:32:40;10.20;;;9.27;;
7997;SDS011;4044;49.814;7.828;2023-05-23T13:35:05;11.05;;;8.93;;
7997;SDS011;4044;49.814;7.828;2023-05-23T13:37:31;11.00;;;9.50;;
7997;SDS011;4044;49.814;7.828;2023-05-23T13:39:57;12.45;;;9.50;;
7997;SDS011;4044;49.814;7.828;2023-05-23T13:42:22;10.48;;;9.32;;
7997;SDS011;4044;49.814;7.828;2023-05-23T13:44:48;10.50;;;9.40;;
7997;SDS011;4044;49.814;7.828;2023-05-23T13:47:14;10.40;;;8.88;;
7997;SDS011;4044;49.814;7.828;2023-05-23T13:49:40;13.02;;;9.40;;
7997;SDS011;4044;49.814;7.828;2023-05-23T13:52:06;10.20;;;9.30;;
7997;SDS011;4044;49.814;7.828;2023-05-23T13:54:31;10.20;;;9.30;;
7997;SDS011;4044;49.814;7.828;2023-05-23T13:56:57;10.05;;;9.20;;
7997;SDS011;4044;49.814;7.828;2023-05-23T13:59:27;9.85;;;8.98;;
7997;SDS011;4044;49.814;7.828;2023-05-23T14:01:52;10.57;;;9.55;;
7997;SDS011;4044;49.814;7.828;2023-05-23T14:04:18;10.98;;;8.85;;
7997;SDS011;4044;49.814;7.828;2023-05-23T14:06:44;10.50;;;9.50;;
7997;SDS011;4044;49.814;7.828;2023-05-23T14:09:09;10.80;;;9.85;;
7997;SDS011;4044;49.814;7.828;2023-05-23T14:11:36;9.52;;;8.57;;
7997;SDS011;4044;49.814;7.828;2023-05-23T14:14:02;10.45;;;9.45;;
7997;SDS011;4044;49.814;7.828;2023-05-23T14:16:27;10.68;;;9.57;;
7997;SDS011;4044;49.814;7.828;2023-05-23T14:18:53;10.38;;;9.45;;
7997;SDS011;4044;49.814;7.828;2023-05-23T14:21:18;10.65;;;9.60;;
7997;SDS011;4044;49.814;7.828;2023-05-23T14:23:45;10.63;;;9.70;;
7997;SDS011;4044;49.814;7.828;2023-05-23T14:26:10;11.63;;;10.27;;
7997;SDS011;4044;49.814;7.828;2023-05-23T14:28:36;11.57;;;10.55;;
7997;SDS011;4044;49.814;7.828;2023-05-23T14:31:01;11.38;;;10.43;;
7997;SDS011;4044;49.814;7.828;2023-05-23T14:33:27;12.23;;;10.95;;
7997;SDS011;4044;49.814;7.828;2023-05-23T14:35:52;12.57;;;11.27;;
7997;SDS011;4044;49.814;7.828;2023-05-23T14:38:18;13.35;;;12.02;;
7997;SDS011;4044;49.814;7.828;2023-05-23T14:40:44;13.77;;;12.35;;
7997;SDS011;4044;49.814;7.828;2023-05-23T14:43:09;15.15;;;13.70;;
7997;SDS011;4044;49.814;7.828;2023-05-23T14:45:35;15.32;;;13.82;;
7997;SDS011;4044;49.814;7.828;2023-05-23T14:48:01;15.20;;;13.70;;
7997;SDS011;4044;49.814;7.828;2023-05-23T14:50:26;16.00;;;14.32;;
7997;SDS011;4044;49.814;7.828;2023-05-23T14:52:52;16.35;;;14.77;;
7997;SDS011;4044;49.814;7.828;2023-05-23T14:55:18;15.57;;;14.02;;
7997;SDS011;4044;49.814;7.828;2023-05-23T14:57:44;14.23;;;12.82;;
7997;SDS011;4044;49.814;7.828;2023-05-23T15:00:09;14.35;;;13.05;;
7997;SDS011;4044;49.814;7.828;2023-05-23T15:02:36;14.65;;;13.25;;
7997;SDS011;4044;49.814;7.828;2023-05-23T15:05:02;14.60;;;13.07;;
7997;SDS011;4044;49.814;7.828;2023-05-23T15:07:28;16.70;;;14.23;;
7997;SDS011;4044;49.814;7.828;2023-05-23T15:09:54;14.13;;;12.82;;
7997;SDS011;4044;49.814;7.828;2023-05-23T15:12:20;13.57;;;12.23;;
7997;SDS011;4044;49.814;7.828;2023-05-23T15:14:45;12.00;;;10.82;;
7997;SDS011;4044;49.814;7.828;2023-05-23T15:17:11;12.18;;;11.07;;
7997;SDS011;4044;49.814;7.828;2023-05-23T15:19:43;12.10;;;10.38;;
7997;SDS011;4044;49.814;7.828;2023-05-23T15:22:08;11.13;;;9.98;;
7997;SDS011;4044;49.814;7.828;2023-05-23T15:24:34;11.40;;;9.93;;
7997;SDS011;4044;49.814;7.828;2023-05-23T15:26:59;11.93;;;10.70;;
7997;SDS011;4044;49.814;7.828;2023-05-23T15:29:25;11.43;;;10.15;;